sensor_id;sensor_type;location;lat;lon;timestamp;pressure;altitude;pressure_sealevel;temperature;humidity
11448;BME280;43755;49.736;8.734;2023-04-29T00:00:58;97516.38;;;10.55;100.00
11448;BME280;43755;49.736;8.734;2023-04-29T00:03:00;97521.84;;;10.52;100.00
11448;BME280;43755;49.736;8.734;2023-04-29T00:05:01;97511.78;;;10.41;100.00
11448;BME280;43755;49.736;8.734;2023-04-29T00:07:03;97518.31;;;10.34;100.00
11448;BME280;43755;49.736;8.734;2023-04-29T00:09:06;97512.47;;;10.27;100.00
11448;BME280;43755;49.736;8.734;2023-04-29T00:11:07;97510.63;;;10.30;100.00
11448;BME280;43755;49.736;8.734;2023-04-29T00:13:10;97514.41;;;10.24;100.00
11448;BME280;43755;49.736;8.734;2023-04-29T00:15:13;97518.22;;;10.18;100.00
11448;BME280;43755;49.736;8.734;2023-04-29T00:17:15;97512.25;;;10.13;100.00
11448;BME280;43755;49.736;8.734;2023-04-29T00:19:16;97510.56;;;10.12;100.00
11448;BME280;43755;49.736;8.734;2023-04-29T00:21:18;97514.06;;;10.13;100.00
11448;BME280;43755;49.736;8.734;2023-04-29T00:23:20;97517.69;;;10.10;100.00
11448;BME280;43755;49.736;8.734;2023-04-29T00:25:21;97521.88;;;10.14;100.00
11448;BME280;43755;49.736;8.734;2023-04-29T00:27:23;97515.09;;;10.09;100.00
11448;BME280;43755;49.736;8.734;2023-04-29T00:29:24;97514.41;;;10.05;100.00
11448;BME280;43755;49.736;8.734;2023-04-29T00:31:28;97509.88;;;10.07;100.00
11448;BME280;43755;49.736;8.734;2023-04-29T00:33:31;97512.75;;;10.03;100.00
11448;BME280;43755;49.736;8.734;2023-04-29T00:35:33;97509.44;;;9.99;100.00
11448;BME280;43755;49.736;8.734;2023-04-29T00:37:34;97507.78;;;9.97;100.00
11448;BME280;43755;49.736;8.734;2023-04-29T00:39:35;97517.34;;;9.99;100.00
11448;BME280;43755;49.736;8.734;2023-04-29T00:41:37;97505.22;;;9.95;100.00
11448;BME280;43755;49.736;8.734;2023-04-29T00:43:38;97512.72;;;9.85;100.00
11448;BME280;43755;49.736;8.734;2023-04-29T00:45:40;97513.06;;;9.78;100.00
11448;BME280;43755;49.736;8.734;2023-04-29T00:47:42;97514.22;;;9.72;100.00
11448;BME280;43755;49.736;8.734;2023-04-29T00:49:44;97512.81;;;9.65;100.00
11448;BME280;43755;49.736;8.734;2023-04-29T00:51:46;97504.16;;;9.62;100.00
11448;BME280;43755;49.736;8.734;2023-04-29T00:53:48;97511.38;;;9.58;100.00
11448;BME280;43755;49.736;8.734;2023-04-29T00:55:50;97504.22;;;9.60;100.00
11448;BME280;43755;49.736;8.734;2023-04-29T00:57:52;97514.31;;;9.52;100.00
11448;BME280;43755;49.736;8.734;2023-04-29T00:59:54;97518.09;;;9.47;100.00
11448;BME280;43755;49.736;8.734;2023-04-29T01:01:55;97513.22;;;9.37;100.00
11448;BME280;43755;49.736;8.734;2023-04-29T01:03:58;97514.22;;;9.35;100.00
11448;BME280;43755;49.736;8.734;2023-04-29T01:06:08;97513.94;;;9.41;100.00
11448;BME280;43755;49.736;8.734;2023-04-29T01:08:20;97514.94;;;9.38;100.00
11448;BME280;43755;49.736;8.734;2023-04-29T01:10:27;97513.66;;;9.47;100.00
11448;BME280;43755;49.736;8.734;2023-04-29T01:12:32;97509.66;;;9.57;100.00
11448;BME280;43755;49.736;8.734;2023-04-29T01:14:37;97506.09;;;9.58;100.00
11448;BME280;43755;49.736;8.734;2023-04-29T01:16:44;97509.59;;;9.59;100.00
11448;BME280;43755;49.736;8.734;2023-04-29T01:18:51;97516.72;;;9.57;100.00
11448;BME280;43755;49.736;8.734;2023-04-29T01:20:57;97514.09;;;9.57;100.00
11448;BME280;43755;49.736;8.734;2023-04-29T01:22:58;97515.16;;;9.53;100.00
11448;BME280;43755;49.736;8.734;2023-04-29T01:25:01;97518.56;;;9.55;100.00
11448;BME280;43755;49.736;8.734;2023-04-29T01:27:11;97515.00;;;9.56;100.00
11448;BME280;43755;49.736;8.734;2023-04-29T01:29:21;97520.28;;;9.56;100.00
11448;BME280;43755;49.736;8.734;2023-04-29T01:31:27;97510.59;;;9.56;100.00
11448;BME280;43755;49.736;8.734;2023-04-29T01:33:39;97511.44;;;9.57;100.00
11448;BME280;43755;49.736;8.734;2023-04-29T01:35:48;97515.00;;;9.56;100.00
11448;BME280;43755;49.736;8.734;2023-04-29T01:37:55;97518.44;;;9.58;100.00
11448;BME280;43755;49.736;8.734;2023-04-29T01:40:08;97513.00;;;9.61;100.00
11448;BME280;43755;49.736;8.734;2023-04-29T01:42:17;97513.81;;;9.63;100.00
11448;BME280;43755;49.736;8.734;2023-04-29T01:44:23;97513.81;;;9.63;100.00
11448;BME280;43755;49.736;8.734;2023-04-29T01:46:27;97515.75;;;9.59;100.00
11448;BME280;43755;49.736;8.734;2023-04-29T01:48:29;97513.28;;;9.55;100.00
11448;BME280;43755;49.736;8.734;2023-04-29T01:50:30;97514.25;;;9.54;100.00
11448;BME280;43755;49.736;8.734;2023-04-29T01:52:32;97510.66;;;9.55;100.00
11448;BME280;43755;49.736;8.734;2023-04-29T01:54:34;97508.69;;;9.60;100.00
11448;BME280;43755;49.736;8.734;2023-04-29T01:56:37;97512.09;;;9.62;100.00
11448;BME280;43755;49.736;8.734;2023-04-29T01:58:38;97513.00;;;9.61;100.00
11448;BME280;43755;49.736;8.734;2023-04-29T02:00:40;97511.09;;;9.64;100.00
11448;BME280;43755;49.736;8.734;2023-04-29T02:02:41;97517.38;;;9.62;100.00
11448;BME280;43755;49.736;8.734;2023-04-29T02:04:43;97512.88;;;9.64;100.00
11448;BME280;43755;49.736;8.734;2023-04-29T02:06:45;97525.06;;;9.66;100.00
11448;BME280;43755;49.736;8.734;2023-04-29T02:08:46;97522.31;;;9.69;100.00
11448;BME280;43755;49.736;8.734;2023-04-29T02:10:52;97520.22;;;9.76;100.00
11448;BME280;43755;49.736;8.734;2023-04-29T02:12:55;97525.34;;;9.79;100.00
11448;BME280;43755;49.736;8.734;2023-04-29T02:14:56;97523.72;;;9.76;100.00
11448;BME280;43755;49.736;8.734;2023-04-29T02:16:59;97530.06;;;9.72;100.00
11448;BME280;43755;49.736;8.734;2023-04-29T02:19:00;97533.50;;;9.74;100.00
11448;BME280;43755;49.736;8.734;2023-04-29T02:21:02;97530.00;;;9.74;100.00
11448;BME280;43755;49.736;8.734;2023-04-29T02:23:03;97533.50;;;9.74;100.00
11448;BME280;43755;49.736;8.734;2023-04-29T02:25:06;97530.34;;;9.85;100.00
11448;BME280;43755;49.736;8.734;2023-04-29T02:27:07;97539.94;;;9.88;100.00
11448;BME280;43755;49.736;8.734;2023-04-29T02:29:10;97535.22;;;9.94;100.00
11448;BME280;43755;49.736;8.734;2023-04-29T02:31:11;97534.94;;;10.00;100.00
11448;BME280;43755;49.736;8.734;2023-04-29T02:33:13;97543.50;;;10.05;100.00
11448;BME280;43755;49.736;8.734;2023-04-29T02:35:15;97545.97;;;10.08;100.00
11448;BME280;43755;49.736;8.734;2023-04-29T02:37:16;97539.47;;;10.15;100.00
11448;BME280;43755;49.736;8.734;2023-04-29T02:39:18;97548.97;;;10.19;100.00
11448;BME280;43755;49.736;8.734;2023-04-29T02:41:20;97545.41;;;10.20;100.00
11448;BME280;43755;49.736;8.734;2023-04-29T02:43:21;97541.06;;;10.19;100.00
11448;BME280;43755;49.736;8.734;2023-04-29T02:45:24;97546.34;;;10.19;100.00
11448;BME280;43755;49.736;8.734;2023-04-29T02:47:26;97545.50;;;10.19;100.00
11448;BME280;43755;49.736;8.734;2023-04-29T02:49:27;97549.94;;;10.18;100.00
11448;BME280;43755;49.736;8.734;2023-04-29T02:51:28;97546.53;;;10.15;100.00
11448;BME280;43755;49.736;8.734;2023-04-29T02:53:30;97554.44;;;10.16;100.00
11448;BME280;43755;49.736;8.734;2023-04-29T02:55:31;97544.75;;;10.15;100.00
11448;BME280;43755;49.736;8.734;2023-04-29T02:57:33;97547.56;;;10.12;100.00
11448;BME280;43755;49.736;8.734;2023-04-29T02:59:34;97544.13;;;10.10;100.00
11448;BME280;43755;49.736;8.734;2023-04-29T03:01:37;97553.91;;;10.08;100.00
11448;BME280;43755;49.736;8.734;2023-04-29T03:03:38;97549.91;;;10.00;100.00
11448;BME280;43755;49.736;8.734;2023-04-29T03:05:40;97552.34;;;10.04;100.00
11448;BME280;43755;49.736;8.734;2023-04-29T03:07:41;97550.97;;;10.14;100.00
11448;BME280;43755;49.736;8.734;2023-04-29T03:09:43;97546.53;;;10.15;100.00
11448;BME280;43755;49.736;8.734;2023-04-29T03:11:44;97549.72;;;10.23;100.00
11448;BME280;43755;49.736;8.734;2023-04-29T03:13:46;97553.03;;;10.26;100.00
11448;BME280;43755;49.736;8.734;2023-04-29T03:15:47;97553.97;;;10.25;100.00
11448;BME280;43755;49.736;8.734;2023-04-29T03:17:50;97550.63;;;10.22;100.00
11448;BME280;43755;49.736;8.734;2023-04-29T03:19:51;97553.03;;;10.26;100.00
11448;BME280;43755;49.736;8.734;2023-04-29T03:21:53;97556.47;;;10.29;100.00
11448;BME280;43755;49.736;8.734;2023-04-29T03:23:54;97551.19;;;10.29;100.00
11448;BME280;43755;49.736;8.734;2023-04-29T03:25:56;97552.75;;;10.33;100.00
11448;BME280;43755;49.736;8.734;2023-04-29T03:27:57;97554.53;;;10.32;100.00
11448;BME280;43755;49.736;8.734;2023-04-29T03:29:59;97556.47;;;10.29;100.00
11448;BME280;43755;49.736;8.734;2023-04-29T03:32:00;97550.47;;;10.25;100.00
11448;BME280;43755;49.736;8.734;2023-04-29T03:34:03;97562.06;;;10.22;100.00
11448;BME280;43755;49.736;8.734;2023-04-29T03:36:05;97553.44;;;10.19;100.00
11448;BME280;43755;49.736;8.734;2023-04-29T03:38:07;97548.31;;;10.14;100.00
11448;BME280;43755;49.736;8.734;2023-04-29T03:40:10;97557.41;;;10.09;100.00
11448;BME280;43755;49.736;8.734;2023-04-29T03:42:12;97557.56;;;10.06;100.00
11448;BME280;43755;49.736;8.734;2023-04-29T03:44:13;97562.75;;;10.07;100.00
11448;BME280;43755;49.736;8.734;2023-04-29T03:46:15;97556.63;;;10.07;100.00
11448;BME280;43755;49.736;8.734;2023-04-29T03:48:16;97559.13;;;10.10;100.00
11448;BME280;43755;49.736;8.734;2023-04-29T03:50:21;97553.69;;;10.13;100.00
11448;BME280;43755;49.736;8.734;2023-04-29T03:52:23;97561.75;;;10.10;100.00
11448;BME280;43755;49.736;8.734;2023-04-29T03:54:24;97559.06;;;10.11;100.00
11448;BME280;43755;49.736;8.734;2023-04-29T03:56:26;97556.34;;;10.13;100.00
11448;BME280;43755;49.736;8.734;2023-04-29T03:58:27;97565.19;;;10.12;100.00
11448;BME280;43755;49.736;8.734;2023-04-29T04:00:29;97569.41;;;10.16;100.00
11448;BME280;43755;49.736;8.734;2023-04-29T04:02:31;97570.22;;;10.18;100.00
11448;BME280;43755;49.736;8.734;2023-04-29T04:04:32;97567.34;;;10.22;100.00
11448;BME280;43755;49.736;8.734;2023-04-29T04:06:35;97570.84;;;10.23;100.00
11448;BME280;43755;49.736;8.734;2023-04-29T04:08:36;97573.44;;;10.24;100.00
11448;BME280;43755;49.736;8.734;2023-04-29T04:10:40;97579.66;;;10.23;100.00
11448;BME280;43755;49.736;8.734;2023-04-29T04:12:41;97583.06;;;10.25;100.00
11448;BME280;43755;49.736;8.734;2023-04-29T04:14:42;97583.78;;;10.29;100.00
11448;BME280;43755;49.736;8.734;2023-04-29T04:16:44;97588.13;;;10.30;100.00
11448;BME280;43755;49.736;8.734;2023-04-29T04:18:45;97591.56;;;10.32;100.00
11448;BME280;43755;49.736;8.734;2023-04-29T04:20:47;97584.41;;;10.34;100.00
11448;BME280;43755;49.736;8.734;2023-04-29T04:22:49;97590.38;;;10.38;100.00
11448;BME280;43755;49.736;8.734;2023-04-29T04:24:53;97598.41;;;10.36;100.00
11448;BME280;43755;49.736;8.734;2023-04-29T04:26:54;97592.28;;;10.36;100.00
11448;BME280;43755;49.736;8.734;2023-04-29T04:28:56;97595.69;;;10.38;100.00
11448;BME280;43755;49.736;8.734;2023-04-29T04:30:57;97601.59;;;10.43;100.00
11448;BME280;43755;49.736;8.734;2023-04-29T04:32:59;97597.28;;;10.42;100.00
11448;BME280;43755;49.736;8.734;2023-04-29T04:35:00;97600.91;;;10.39;100.00
11448;BME280;43755;49.736;8.734;2023-04-29T04:37:02;97601.75;;;10.40;100.00
11448;BME280;43755;49.736;8.734;2023-04-29T04:39:04;97606.06;;;10.42;100.00
11448;BME280;43755;49.736;8.734;2023-04-29T04:41:06;97618.25;;;10.45;100.00
11448;BME280;43755;49.736;8.734;2023-04-29T04:43:07;97606.81;;;10.44;100.00
11448;BME280;43755;49.736;8.734;2023-04-29T04:45:09;97612.91;;;10.46;100.00
11448;BME280;43755;49.736;8.734;2023-04-29T04:47:11;97609.34;;;10.47;100.00
11448;BME280;43755;49.736;8.734;2023-04-29T04:49:12;97618.03;;;10.49;100.00
11448;BME280;43755;49.736;8.734;2023-04-29T04:51:13;97615.47;;;10.48;100.00
11448;BME280;43755;49.736;8.734;2023-04-29T04:53:15;97625.03;;;10.50;100.00
11448;BME280;43755;49.736;8.734;2023-04-29T04:55:18;97624.19;;;10.50;100.00
11448;BME280;43755;49.736;8.734;2023-04-29T04:57:19;97627.63;;;10.52;100.00
11448;BME280;43755;49.736;8.734;2023-04-29T04:59:20;97622.31;;;10.52;100.00
11448;BME280;43755;49.736;8.734;2023-04-29T05:01:22;97619.63;;;10.53;100.00
11448;BME280;43755;49.736;8.734;2023-04-29T05:03:23;97621.53;;;10.50;100.00
11448;BME280;43755;49.736;8.734;2023-04-29T05:05:25;97627.63;;;10.52;100.00
11448;BME280;43755;49.736;8.734;2023-04-29T05:07:26;97624.97;;;10.52;100.00
11448;BME280;43755;49.736;8.734;2023-04-29T05:09:27;97627.75;;;10.49;100.00
11448;BME280;43755;49.736;8.734;2023-04-29T05:11:30;97627.56;;;10.53;100.00
11448;BME280;43755;49.736;8.734;2023-04-29T05:13:32;97628.53;;;10.51;100.00
11448;BME280;43755;49.736;8.734;2023-04-29T05:15:33;97633.91;;;10.49;100.00
11448;BME280;43755;49.736;8.734;2023-04-29T05:17:35;97636.41;;;10.52;100.00
11448;BME280;43755;49.736;8.734;2023-04-29T05:19:36;97641.69;;;10.52;100.00
11448;BME280;43755;49.736;8.734;2023-04-29T05:21:38;97647.69;;;10.56;100.00
11448;BME280;43755;49.736;8.734;2023-04-29T05:23:39;97657.34;;;10.57;100.00
11448;BME280;43755;49.736;8.734;2023-04-29T05:25:41;97650.19;;;10.59;100.00
11448;BME280;43755;49.736;8.734;2023-04-29T05:27:43;97651.81;;;10.61;100.00
11448;BME280;43755;49.736;8.734;2023-04-29T05:29:45;97661.47;;;10.62;100.00
11448;BME280;43755;49.736;8.734;2023-04-29T05:31:46;97665.16;;;10.60;100.00
11448;BME280;43755;49.736;8.734;2023-04-29T05:33:48;97667.69;;;10.61;100.00
11448;BME280;43755;49.736;8.734;2023-04-29T05:35:49;97667.63;;;10.63;100.00
11448;BME280;43755;49.736;8.734;2023-04-29T05:37:50;97669.47;;;10.61;100.00
11448;BME280;43755;49.736;8.734;2023-04-29T05:39:52;97674.00;;;10.59;100.00
11448;BME280;43755;49.736;8.734;2023-04-29T05:41:53;97674.47;;;10.67;100.00
11448;BME280;43755;49.736;8.734;2023-04-29T05:43:56;97675.56;;;10.63;100.00
11448;BME280;43755;49.736;8.734;2023-04-29T05:45:57;97689.59;;;10.65;100.00
11448;BME280;43755;49.736;8.734;2023-04-29T05:47:59;97685.06;;;10.67;100.00
11448;BME280;43755;49.736;8.734;2023-04-29T05:50:00;97689.50;;;10.66;100.00
11448;BME280;43755;49.736;8.734;2023-04-29T05:52:01;97694.25;;;10.60;100.00
11448;BME280;43755;49.736;8.734;2023-04-29T05:54:05;97692.53;;;10.59;100.00
11448;BME280;43755;49.736;8.734;2023-04-29T05:56:07;97699.44;;;10.61;100.00
11448;BME280;43755;49.736;8.734;2023-04-29T05:58:08;97697.59;;;10.63;100.00
11448;BME280;43755;49.736;8.734;2023-04-29T06:00:11;97703.81;;;10.62;100.00
11448;BME280;43755;49.736;8.734;2023-04-29T06:02:13;97706.50;;;10.61;100.00
11448;BME280;43755;49.736;8.734;2023-04-29T06:04:14;97700.38;;;10.60;100.00
11448;BME280;43755;49.736;8.734;2023-04-29T06:06:16;97706.38;;;10.64;100.00
11448;BME280;43755;49.736;8.734;2023-04-29T06:08:17;97710.59;;;10.68;100.00
11448;BME280;43755;49.736;8.734;2023-04-29T06:10:19;97708.09;;;10.65;100.00
11448;BME280;43755;49.736;8.734;2023-04-29T06:12:20;97717.44;;;10.72;100.00
11448;BME280;43755;49.736;8.734;2023-04-29T06:14:21;97721.69;;;10.76;100.00
11448;BME280;43755;49.736;8.734;2023-04-29T06:16:24;97713.81;;;10.75;100.00
11448;BME280;43755;49.736;8.734;2023-04-29T06:18:26;97723.59;;;10.73;100.00
11448;BME280;43755;49.736;8.734;2023-04-29T06:20:27;97729.28;;;10.65;100.00
11448;BME280;43755;49.736;8.734;2023-04-29T06:22:29;97719.09;;;10.56;100.00
11448;BME280;43755;49.736;8.734;2023-04-29T06:24:30;97727.84;;;10.58;100.00
11448;BME280;43755;49.736;8.734;2023-04-29T06:26:31;97727.84;;;10.58;100.00
11448;BME280;43755;49.736;8.734;2023-04-29T06:28:33;97733.69;;;10.64;100.00
11448;BME280;43755;49.736;8.734;2023-04-29T06:30:34;97732.69;;;10.67;100.00
11448;BME280;43755;49.736;8.734;2023-04-29T06:32:37;97728.34;;;10.66;100.00
11448;BME280;43755;49.736;8.734;2023-04-29T06:34:39;97735.81;;;10.75;100.00
11448;BME280;43755;49.736;8.734;2023-04-29T06:36:40;97739.19;;;10.79;100.00
11448;BME280;43755;49.736;8.734;2023-04-29T06:38:41;97740.03;;;10.79;100.00
11448;BME280;43755;49.736;8.734;2023-04-29T06:40:43;97745.50;;;10.76;100.00
11448;BME280;43755;49.736;8.734;2023-04-29T06:42:44;97745.31;;;10.79;100.00
11448;BME280;43755;49.736;8.734;2023-04-29T06:44:46;97746.97;;;10.82;100.00
11448;BME280;43755;49.736;8.734;2023-04-29T06:46:47;97745.44;;;10.78;100.00
11448;BME280;43755;49.736;8.734;2023-04-29T06:48:50;97745.13;;;10.84;100.00
11448;BME280;43755;49.736;8.734;2023-04-29T06:50:53;97746.91;;;10.83;100.00
11448;BME280;43755;49.736;8.734;2023-04-29T06:52:55;97751.34;;;10.83;100.00
11448;BME280;43755;49.736;8.734;2023-04-29T06:54:56;97756.66;;;10.83;100.00
11448;BME280;43755;49.736;8.734;2023-04-29T06:56:58;97753.50;;;10.75;100.00
11448;BME280;43755;49.736;8.734;2023-04-29T06:58:59;97762.63;;;10.67;100.00
11448;BME280;43755;49.736;8.734;2023-04-29T07:01:00;97763.44;;;10.70;100.00
11448;BME280;43755;49.736;8.734;2023-04-29T07:03:03;97765.00;;;10.74;100.00
11448;BME280;43755;49.736;8.734;2023-04-29T07:05:06;97759.34;;;10.81;100.00
11448;BME280;43755;49.736;8.734;2023-04-29T07:07:08;97762.63;;;10.86;100.00
11448;BME280;43755;49.736;8.734;2023-04-29T07:09:09;97766.72;;;10.93;100.00
11448;BME280;43755;49.736;8.734;2023-04-29T07:11:11;97766.72;;;10.93;100.00
11448;BME280;43755;49.736;8.734;2023-04-29T07:13:12;97773.34;;;11.02;100.00
11448;BME280;43755;49.736;8.734;2023-04-29T07:15:14;97777.47;;;11.07;100.00
11448;BME280;43755;49.736;8.734;2023-04-29T07:17:15;97775.63;;;11.09;100.00
11448;BME280;43755;49.736;8.734;2023-04-29T07:19:16;97780.63;;;11.16;100.00
11448;BME280;43755;49.736;8.734;2023-04-29T07:21:20;97784.19;;;11.15;100.00
11448;BME280;43755;49.736;8.734;2023-04-29T07:23:21;97792.44;;;11.08;100.00
11448;BME280;43755;49.736;8.734;2023-04-29T07:25:22;97794.75;;;10.97;100.00
11448;BME280;43755;49.736;8.734;2023-04-29T07:27:24;97793.13;;;10.95;100.00
11448;BME280;43755;49.736;8.734;2023-04-29T07:29:25;97795.94;;;10.90;100.00
11448;BME280;43755;49.736;8.734;2023-04-29T07:31:27;97804.06;;;10.87;100.00
11448;BME280;43755;49.736;8.734;2023-04-29T07:33:29;97799.75;;;10.85;100.00
11448;BME280;43755;49.736;8.734;2023-04-29T07:35:30;97801.69;;;10.81;100.00
11448;BME280;43755;49.736;8.734;2023-04-29T07:37:33;97811.28;;;10.84;100.00
11448;BME280;43755;49.736;8.734;2023-04-29T07:39:35;97806.13;;;10.81;100.00
11448;BME280;43755;49.736;8.734;2023-04-29T07:41:36;97813.72;;;10.88;100.00
11448;BME280;43755;49.736;8.734;2023-04-29T07:43:38;97814.97;;;10.80;100.00
11448;BME280;43755;49.736;8.734;2023-04-29T07:45:39;97815.84;;;10.80;100.00
11448;BME280;43755;49.736;8.734;2023-04-29T07:47:40;97817.13;;;10.90;100.00
11448;BME280;43755;49.736;8.734;2023-04-29T07:49:42;97826.59;;;10.77;100.00
11448;BME280;43755;49.736;8.734;2023-04-29T07:51:43;97825.50;;;10.81;100.00
11448;BME280;43755;49.736;8.734;2023-04-29T07:53:46;97828.72;;;10.88;100.00
11448;BME280;43755;49.736;8.734;2023-04-29T07:55:47;97827.94;;;10.86;100.00
11448;BME280;43755;49.736;8.734;2023-04-29T07:57:49;97827.94;;;10.86;100.00
11448;BME280;43755;49.736;8.734;2023-04-29T07:59:51;97834.66;;;10.93;100.00
11448;BME280;43755;49.736;8.734;2023-04-29T08:01:52;97835.53;;;11.12;100.00
11448;BME280;43755;49.736;8.734;2023-04-29T08:03:54;97845.78;;;11.37;100.00
11448;BME280;43755;49.736;8.734;2023-04-29T08:05:59;97841.13;;;11.42;100.00
11448;BME280;43755;49.736;8.734;2023-04-29T08:08:01;97838.72;;;11.55;100.00
11448;BME280;43755;49.736;8.734;2023-04-29T08:10:05;97842.47;;;11.50;100.00
11448;BME280;43755;49.736;8.734;2023-04-29T08:12:07;97841.28;;;11.75;100.00
11448;BME280;43755;49.736;8.734;2023-04-29T08:14:08;97847.78;;;12.04;100.00
11448;BME280;43755;49.736;8.734;2023-04-29T08:16:10;97856.88;;;12.15;100.00
11448;BME280;43755;49.736;8.734;2023-04-29T08:18:11;97852.34;;;12.35;100.00
11448;BME280;43755;49.736;8.734;2023-04-29T08:20:13;97858.44;;;12.37;100.00
11448;BME280;43755;49.736;8.734;2023-04-29T08:22:14;97850.31;;;12.40;100.00
11448;BME280;43755;49.736;8.734;2023-04-29T08:24:16;97855.97;;;12.49;100.00
11448;BME280;43755;49.736;8.734;2023-04-29T08:26:18;97856.56;;;12.39;100.00
11448;BME280;43755;49.736;8.734;2023-04-29T08:28:20;97858.31;;;12.55;100.00
11448;BME280;43755;49.736;8.734;2023-04-29T08:30:21;97846.00;;;12.87;100.00
11448;BME280;43755;49.736;8.734;2023-04-29T08:32:23;97852.44;;;12.99;100.00
11448;BME280;43755;49.736;8.734;2023-04-29T08:34:25;97852.09;;;13.05;100.00
11448;BME280;43755;49.736;8.734;2023-04-29T08:36:26;97865.19;;;13.25;100.00
11448;BME280;43755;49.736;8.734;2023-04-29T08:38:29;97858.81;;;13.28;100.00
11448;BME280;43755;49.736;8.734;2023-04-29T08:40:33;97863.25;;;13.11;100.00
11448;BME280;43755;49.736;8.734;2023-04-29T08:42:36;97866.72;;;13.29;100.00
11448;BME280;43755;49.736;8.734;2023-04-29T08:44:39;97866.81;;;12.95;100.00
11448;BME280;43755;49.736;8.734;2023-04-29T08:46:42;97869.41;;;12.63;100.00
11448;BME280;43755;49.736;8.734;2023-04-29T08:48:44;97869.56;;;12.43;100.00
11448;BME280;43755;49.736;8.734;2023-04-29T08:50:46;97881.91;;;12.44;100.00
11448;BME280;43755;49.736;8.734;2023-04-29T08:52:48;97874.50;;;12.51;100.00
11448;BME280;43755;49.736;8.734;2023-04-29T08:54:51;97872.78;;;12.83;100.00
11448;BME280;43755;49.736;8.734;2023-04-29T08:56:54;97875.34;;;12.84;100.00
11448;BME280;43755;49.736;8.734;2023-04-29T08:59:00;97882.91;;;12.92;100.00
11448;BME280;43755;49.736;8.734;2023-04-29T09:01:06;97884.94;;;12.71;100.00
11448;BME280;43755;49.736;8.734;2023-04-29T09:03:13;97876.50;;;12.63;100.00
11448;BME280;43755;49.736;8.734;2023-04-29T09:05:16;97886.09;;;12.65;100.00
11448;BME280;43755;49.736;8.734;2023-04-29T09:07:18;97886.88;;;12.67;100.00
11448;BME280;43755;49.736;8.734;2023-04-29T09:09:20;97887.63;;;12.54;100.00
11448;BME280;43755;49.736;8.734;2023-04-29T09:11:22;97882.63;;;12.48;100.00
11448;BME280;43755;49.736;8.734;2023-04-29T09:13:23;97890.28;;;12.37;100.00
11448;BME280;43755;49.736;8.734;2023-04-29T09:15:27;97890.97;;;12.23;100.00
11448;BME280;43755;49.736;8.734;2023-04-29T09:17:41;97897.53;;;12.16;100.00
11448;BME280;43755;49.736;8.734;2023-04-29T09:19:43;97898.94;;;12.06;100.00
11448;BME280;43755;49.736;8.734;2023-04-29T09:21:53;97897.03;;;12.08;100.00
11448;BME280;43755;49.736;8.734;2023-04-29T09:23:56;97900.72;;;12.05;100.00
11448;BME280;43755;49.736;8.734;2023-04-29T09:25:57;97903.63;;;12.01;100.00
11448;BME280;43755;49.736;8.734;2023-04-29T09:28:13;97898.06;;;11.88;100.00
11448;BME280;43755;49.736;8.734;2023-04-29T09:30:15;97910.53;;;11.86;100.00
11448;BME280;43755;49.736;8.734;2023-04-29T09:32:18;97907.56;;;11.92;100.00
11448;BME280;43755;49.736;8.734;2023-04-29T09:34:29;97909.06;;;11.98;100.00
11448;BME280;43755;49.736;8.734;2023-04-29T09:36:36;97909.97;;;11.97;100.00
11448;BME280;43755;49.736;8.734;2023-04-29T09:38:52;97912.44;;;12.01;100.00
11448;BME280;43755;49.736;8.734;2023-04-29T09:40:54;97913.75;;;12.10;100.00
11448;BME280;43755;49.736;8.734;2023-04-29T09:42:56;97916.66;;;12.22;100.00
11448;BME280;43755;49.736;8.734;2023-04-29T09:44:58;97914.22;;;12.35;100.00
11448;BME280;43755;49.736;8.734;2023-04-29T09:47:00;97918.19;;;12.44;100.00
11448;BME280;43755;49.736;8.734;2023-04-29T09:49:21;97916.03;;;12.35;100.00
11448;BME280;43755;49.736;8.734;2023-04-29T09:51:23;97924.06;;;12.33;100.00
11448;BME280;43755;49.736;8.734;2023-04-29T09:53:27;97913.19;;;12.38;100.00
11448;BME280;43755;49.736;8.734;2023-04-29T09:55:30;97914.91;;;12.39;100.00
11448;BME280;43755;49.736;8.734;2023-04-29T09:57:38;97916.88;;;12.35;100.00
11448;BME280;43755;49.736;8.734;2023-04-29T09:59:41;97921.72;;;12.27;100.00
11448;BME280;43755;49.736;8.734;2023-04-29T10:01:42;97920.94;;;12.25;100.00
11448;BME280;43755;49.736;8.734;2023-04-29T10:03:44;97929.34;;;12.33;100.00
11448;BME280;43755;49.736;8.734;2023-04-29T10:05:48;97922.44;;;12.48;100.00
11448;BME280;43755;49.736;8.734;2023-04-29T10:07:50;97938.56;;;12.43;100.00
11448;BME280;43755;49.736;8.734;2023-04-29T10:09:52;97939.59;;;12.23;100.00
11448;BME280;43755;49.736;8.734;2023-04-29T10:11:54;97933.88;;;12.14;100.00
11448;BME280;43755;49.736;8.734;2023-04-29T10:13:56;97926.88;;;12.13;100.00
11448;BME280;43755;49.736;8.734;2023-04-29T10:16:05;97936.44;;;12.15;100.00
11448;BME280;43755;49.736;8.734;2023-04-29T10:18:13;97931.22;;;12.14;100.00
11448;BME280;43755;49.736;8.734;2023-04-29T10:20:21;97936.44;;;12.15;100.00
11448;BME280;43755;49.736;8.734;2023-04-29T10:22:32;97934.22;;;12.25;100.00
11448;BME280;43755;49.736;8.734;2023-04-29T10:24:36;97931.38;;;12.28;100.00
11448;BME280;43755;49.736;8.734;2023-04-29T10:26:40;97935.69;;;12.30;100.00
11448;BME280;43755;49.736;8.734;2023-04-29T10:28:44;97941.69;;;12.34;100.00
11448;BME280;43755;49.736;8.734;2023-04-29T10:30:49;97938.78;;;12.39;100.00
11448;BME280;43755;49.736;8.734;2023-04-29T10:32:51;97932.63;;;12.55;100.00
11448;BME280;43755;49.736;8.734;2023-04-29T10:34:54;97933.59;;;12.54;100.00
11448;BME280;43755;49.736;8.734;2023-04-29T10:36:56;97921.03;;;12.73;100.00
11448;BME280;43755;49.736;8.734;2023-04-29T10:39:02;97927.34;;;12.88;100.00
11448;BME280;43755;49.736;8.734;2023-04-29T10:41:08;97927.56;;;13.01;100.00
11448;BME280;43755;49.736;8.734;2023-04-29T10:43:11;97927.78;;;12.96;100.00